東京/横田 の空港の天気 - METARとTAF

横田飛行場 ( RJTY / OKO ) - 東京都福生市
飛行場実況気象(Metar)
観測時間06/29 10:58 JST (06/29 01:58 UTC)
風向・風速東南東 2m/s
視程9650m
天気現象もや
少しの雲 雲底高度 730m
全天の4割程度の雲 雲底高度 980m
全天の8割程度の雲 雲底高度 5490m
気温26.4℃
湿度68%
気圧1014.6hPa
METARRJTY 290158Z 12004KT 6SM BR FEW024 SCT032 BKN180 26/20 A2997 RMK AO2A SLP146 T02640201
過去の天気等 Google飛行場航空写真 Wunderground天気予報

過去48時間のMETAR

飛行場予報(TAF)
発表時間: 6/29 09:39 JST (6/29 00:39 UTC)
予報対象時間: 29日9時 JST ~ 30日12時 JST
風向・風速東 3m/s
視程10km以上
少しの雲 雲底高度 460m
全天の4割程度の雲 雲底高度 2,440m
全天の8割程度の雲 雲底高度 5,490m
29日9時 JST ~ 29日11時 JST に一時的に
視程9,000m
天気現象もや
全天の8割程度の雲 雲底高度 460m
29日14時 JST ~ 29日15時 JST に徐々に
風向・風速南 5m/s
視程10km以上
少しの雲 雲底高度 910m
全天の4割程度の雲 雲底高度 2,440m
全天の4割程度の雲 雲底高度 5,490m
30日2時 JST ~ 30日3時 JST に徐々に
風向・風速南南東 3m/s
視程9,000m
天気現象弱い霧雨
全天を覆う雲 雲底高度 240m
TAF AMD RJTY 290039Z 2900/3003 10006KT 9999 FEW015 SCT080 BKN180 QNH2995INS
TEMPO 2900/2902 9000 BR BKN015
BECMG 2905/2906 18010KT 9999 FEW030 SCT080 SCT180 QNH2996INS
BECMG 2917/2918 15006KT 9000 -DZ OVC008 QNH2992INS TX27/2904Z TN18/2918Z
日本の空港のMETAR・TAFへのリンク

RJTT 東京国際空港
RJAA 新東京国際空港
RJBB 関西国際空港
RJOO 大阪空港
RJGG 中部国際空港
RJCC 新千歳空港
RJFF 福岡空港
ROAH 那覇空港


RJEC 旭川空港
RJCH 函館空港
RJCK 釧路空港
RJCM 女満別空港
RJCB 帯広空港
RJSA 青森空港
RJSS 仙台空港
RJSK 秋田空港
RJSF 福島空港
RJAH 茨城空港
RJSN 新潟空港
RJNT 富山空港
RJNK 小松飛行場
RJNS 静岡空港
RJOH 美保飛行場
RJOC 出雲空港
RJOB 岡山空港
RJOA 広島空港
RJOI 岩国飛行場
RJOT 高松空港
RJOM 松山空港
RJOK 高知空港
RJFR 北九州空港
RJFT 熊本空港
RJFU 長崎空港
RJFS 佐賀空港
RJFO 大分空港
RJFM 宮崎空港
RJFK 鹿児島空港
ROIG 石垣島空港
RJTY 横田飛行場
ROTM 普天間飛行場
RODN 嘉手納飛行場